createdAt,value
2022-10-08T00:01:31.485Z,10.63
2022-10-08T00:03:59.500Z,11.38
2022-10-08T00:06:33.693Z,10.52
2022-10-08T00:09:07.418Z,8.48
2022-10-08T00:11:39.844Z,13.02
2022-10-08T00:14:09.831Z,8.93
2022-10-08T00:16:40.196Z,10.02
2022-10-08T00:19:16.531Z,8.77
2022-10-08T00:21:45.876Z,10.00
2022-10-08T00:24:20.133Z,8.60
2022-10-08T00:26:48.032Z,9.55
2022-10-08T00:29:19.308Z,9.82
2022-10-08T00:31:49.319Z,11.15
2022-10-08T00:34:20.235Z,10.50
2022-10-08T00:36:53.188Z,9.52
2022-10-08T00:39:23.332Z,7.80
2022-10-08T00:41:53.710Z,10.50
2022-10-08T00:44:54.922Z,10.43
2022-10-08T00:47:33.427Z,8.95
2022-10-08T00:50:08.919Z,9.43
2022-10-08T00:55:14.891Z,9.65
2022-10-08T00:57:48.163Z,9.57
2022-10-08T01:00:20.321Z,11.85
2022-10-08T01:02:49.062Z,7.43
2022-10-08T01:05:23.848Z,8.35
2022-10-08T01:08:03.881Z,9.43
2022-10-08T01:10:59.456Z,10.85
2022-10-08T01:14:12.656Z,9.10
2022-10-08T01:17:10.685Z,10.20
2022-10-08T01:20:01.529Z,10.95
2022-10-08T01:22:53.918Z,9.90
2022-10-08T01:25:39.907Z,10.55
2022-10-08T01:30:39.952Z,9.60
2022-10-08T01:33:17.976Z,8.15
2022-10-08T01:35:54.249Z,11.45
2022-10-08T01:38:25.320Z,9.52
2022-10-08T01:41:00.555Z,10.45
2022-10-08T01:43:35.652Z,7.70
2022-10-08T01:46:12.358Z,8.75
2022-10-08T01:48:45.418Z,10.68
2022-10-08T01:51:19.928Z,10.50
2022-10-08T01:53:56.182Z,8.07
2022-10-08T01:56:28.325Z,9.77
2022-10-08T01:59:07.278Z,8.50
2022-10-08T02:01:49.996Z,8.90
2022-10-08T02:04:35.319Z,7.85
2022-10-08T02:07:11.892Z,10.23
2022-10-08T02:09:48.516Z,9.27
2022-10-08T02:12:16.639Z,9.93
2022-10-08T02:14:49.105Z,10.07
2022-10-08T02:17:50.567Z,7.53
2022-10-08T02:20:37.840Z,7.93
2022-10-08T02:24:09.879Z,8.02
2022-10-08T02:26:46.767Z,6.88
2022-10-08T02:29:29.149Z,8.73
2022-10-08T02:32:02.820Z,8.82
2022-10-08T02:34:35.303Z,7.22
2022-10-08T02:37:43.106Z,6.95
2022-10-08T02:40:15.304Z,10.82
2022-10-08T02:42:52.561Z,7.43
2022-10-08T02:45:33.526Z,9.52
2022-10-08T02:48:18.585Z,7.22
2022-10-08T02:50:51.576Z,8.82
2022-10-08T02:53:21.079Z,9.77
2022-10-08T02:56:04.980Z,14.15
2022-10-08T02:58:33.384Z,8.52
2022-10-08T03:01:10.172Z,8.18
2022-10-08T03:03:44.772Z,9.52
2022-10-08T03:06:16.236Z,10.80
2022-10-08T03:08:49.398Z,8.50
2022-10-08T03:13:57.614Z,8.38
2022-10-08T03:16:32.102Z,8.30
2022-10-08T03:19:03.511Z,11.75
2022-10-08T03:21:33.017Z,8.15
2022-10-08T03:24:27.283Z,8.23
2022-10-08T03:26:55.287Z,9.07
2022-10-08T03:29:24.278Z,9.07
2022-10-08T03:31:52.080Z,8.27
2022-10-08T03:34:24.545Z,7.45
2022-10-08T03:36:55.339Z,14.20
2022-10-08T03:39:23.152Z,10.60
2022-10-08T03:41:51.126Z,13.05
2022-10-08T03:44:19.051Z,7.82
2022-10-08T03:46:46.750Z,8.10
2022-10-08T03:49:14.820Z,8.93
2022-10-08T03:51:44.806Z,11.93
2022-10-08T03:54:12.614Z,11.95
2022-10-08T03:56:43.999Z,13.95
2022-10-08T03:59:12.026Z,10.15
2022-10-08T04:01:39.903Z,8.20
2022-10-08T04:04:08.945Z,10.27
2022-10-08T04:06:36.840Z,8.25
2022-10-08T04:09:04.708Z,9.15
2022-10-08T04:11:32.546Z,11.75
2022-10-08T04:14:01.506Z,9.40
2022-10-08T04:16:29.492Z,8.88
2022-10-08T04:19:01.874Z,8.30
2022-10-08T04:21:30.800Z,11.27
2022-10-08T04:23:59.634Z,10.38
2022-10-08T04:26:27.547Z,13.77
2022-10-08T04:28:55.601Z,16.27
2022-10-08T04:31:24.189Z,15.45
2022-10-08T04:33:52.442Z,13.18
2022-10-08T04:36:23.212Z,12.63
2022-10-08T04:38:54.371Z,15.60
2022-10-08T04:41:24.836Z,7.80
2022-10-08T04:43:54.202Z,10.43
2022-10-08T04:46:26.079Z,10.30
2022-10-08T04:49:21.695Z,11.45
2022-10-08T04:52:12.613Z,9.57
2022-10-08T04:57:19.603Z,9.57
2022-10-08T05:00:18.327Z,11.73
2022-10-08T05:02:52.246Z,11.85
2022-10-08T05:05:28.568Z,9.80
2022-10-08T05:08:27.734Z,12.05
2022-10-08T05:13:41.877Z,11.32
2022-10-08T05:16:11.970Z,9.43
2022-10-08T05:18:41.288Z,13.32
2022-10-08T05:21:13.625Z,9.73
2022-10-08T05:23:42.963Z,11.82
2022-10-08T05:26:18.751Z,11.82
2022-10-08T05:28:48.096Z,11.20
2022-10-08T05:31:16.553Z,11.43
2022-10-08T05:33:44.646Z,9.00
2022-10-08T05:36:32.832Z,11.73
2022-10-08T05:39:01.988Z,10.52
2022-10-08T05:41:36.924Z,12.35
2022-10-08T05:44:05.949Z,10.30
2022-10-08T05:46:36.193Z,14.77
2022-10-08T05:49:06.129Z,10.73
2022-10-08T05:51:34.703Z,12.70
2022-10-08T05:54:02.258Z,10.60
2022-10-08T05:56:31.647Z,11.80
2022-10-08T05:58:59.422Z,12.25
2022-10-08T06:01:29.531Z,9.88
2022-10-08T06:04:08.156Z,11.35
2022-10-08T06:06:37.994Z,13.55
2022-10-08T06:09:06.269Z,11.30
2022-10-08T06:11:36.094Z,13.75
2022-10-08T06:14:06.194Z,14.77
2022-10-08T06:16:35.138Z,12.55
2022-10-08T06:19:03.893Z,15.27
2022-10-08T06:21:32.077Z,14.82
2022-10-08T06:24:11.788Z,15.40
2022-10-08T06:26:41.812Z,12.10
2022-10-08T06:29:17.395Z,12.77
2022-10-08T06:34:12.813Z,11.63
2022-10-08T06:36:40.720Z,12.85
2022-10-08T06:39:11.715Z,11.80
2022-10-08T06:41:39.320Z,12.90
2022-10-08T06:44:10.217Z,13.60
2022-10-08T06:46:37.842Z,11.30
2022-10-08T06:49:06.411Z,12.55
2022-10-08T06:51:34.513Z,14.52
2022-10-08T06:54:07.486Z,15.43
2022-10-08T06:56:37.956Z,12.88
2022-10-08T06:59:06.348Z,11.68
2022-10-08T07:01:35.531Z,13.02
2022-10-08T07:04:05.236Z,14.18
2022-10-08T07:06:33.213Z,10.77
2022-10-08T07:09:02.199Z,13.30
2022-10-08T07:11:32.162Z,16.17
2022-10-08T07:14:00.551Z,10.55
2022-10-08T07:16:28.785Z,12.68
2022-10-08T07:18:58.761Z,14.93
2022-10-08T07:21:27.874Z,11.20
2022-10-08T07:23:55.453Z,10.70
2022-10-08T07:26:25.931Z,13.68
2022-10-08T07:28:59.293Z,11.85
2022-10-08T07:31:30.278Z,9.20
2022-10-08T07:33:59.257Z,8.10
2022-10-08T07:36:38.940Z,9.27
2022-10-08T07:39:11.926Z,6.82
2022-10-08T07:41:40.086Z,7.32
2022-10-08T07:44:08.563Z,9.63
2022-10-08T07:46:38.098Z,8.52
2022-10-08T07:49:05.837Z,10.98
2022-10-08T07:51:34.420Z,7.88
2022-10-08T07:54:27.187Z,8.73
2022-10-08T08:00:25.231Z,11.52
2022-10-08T08:02:58.550Z,13.57
2022-10-08T08:05:38.501Z,11.35
2022-10-08T08:08:59.345Z,7.35
2022-10-08T08:15:06.662Z,8.82
2022-10-08T08:18:21.348Z,9.85
2022-10-08T08:28:18.760Z,9.82
2022-10-08T08:30:46.449Z,9.15
2022-10-08T08:33:32.331Z,7.40
2022-10-08T08:35:59.709Z,9.15
2022-10-08T08:38:26.999Z,8.25
2022-10-08T08:40:57.384Z,8.25
2022-10-08T08:43:25.303Z,8.35
2022-10-08T08:45:52.799Z,10.07
2022-10-08T08:48:26.722Z,8.55
2022-10-08T08:50:58.768Z,9.73
2022-10-08T08:53:27.611Z,8.57
2022-10-08T08:55:58.722Z,6.70
2022-10-08T08:58:41.477Z,9.05
2022-10-08T09:01:08.891Z,13.60
2022-10-08T09:03:43.395Z,10.52
2022-10-08T09:06:14.645Z,11.52
2022-10-08T09:08:53.557Z,10.25
2022-10-08T09:11:22.429Z,11.85
2022-10-08T09:14:05.922Z,12.48
2022-10-08T09:16:35.614Z,7.57
2022-10-08T09:19:03.013Z,11.23
2022-10-08T09:21:34.712Z,7.25
2022-10-08T09:24:02.131Z,7.38
2022-10-08T09:26:36.263Z,8.52
2022-10-08T09:29:05.053Z,11.70
2022-10-08T09:31:38.188Z,6.47
2022-10-08T09:34:13.130Z,9.85
2022-10-08T09:36:43.481Z,7.32
2022-10-08T09:39:20.983Z,10.98
2022-10-08T09:42:04.613Z,9.35
2022-10-08T09:45:03.728Z,7.95
2022-10-08T09:47:31.400Z,8.48
2022-10-08T09:50:05.815Z,9.05
2022-10-08T09:55:08.223Z,9.93
2022-10-08T09:57:44.857Z,7.63
2022-10-08T10:00:24.482Z,12.10
2022-10-08T10:02:56.306Z,9.15
2022-10-08T10:05:28.737Z,11.57
2022-10-08T10:07:56.059Z,9.65
2022-10-08T10:10:35.810Z,8.75
2022-10-08T10:13:14.069Z,10.07
2022-10-08T10:15:46.917Z,13.00
2022-10-08T10:18:28.350Z,10.75
2022-10-08T10:21:11.543Z,15.48
2022-10-08T10:23:46.346Z,10.75
2022-10-08T10:26:21.868Z,12.18
2022-10-08T10:29:02.984Z,12.50
2022-10-08T10:31:52.613Z,11.10
2022-10-08T10:34:27.444Z,15.80
2022-10-08T10:36:59.059Z,15.65
2022-10-08T10:39:42.079Z,15.55
2022-10-08T10:42:19.121Z,13.35
2022-10-08T10:44:53.705Z,10.88
2022-10-08T10:47:27.093Z,12.23
2022-10-08T10:49:58.409Z,13.00
2022-10-08T10:52:43.751Z,12.73
2022-10-08T10:58:15.180Z,18.25
2022-10-08T11:01:03.722Z,19.38
2022-10-08T11:03:53.307Z,17.85
2022-10-08T11:06:39.193Z,17.88
2022-10-08T11:09:16.095Z,15.40
2022-10-08T11:11:58.188Z,16.42
2022-10-08T11:15:12.782Z,17.00
2022-10-08T11:17:45.693Z,13.63
2022-10-08T11:20:18.720Z,17.33
2022-10-08T11:22:57.915Z,14.52
2022-10-08T11:26:16.414Z,16.42
2022-10-08T11:29:09.619Z,15.27
2022-10-08T11:31:51.441Z,18.27
2022-10-08T11:34:37.347Z,15.40
2022-10-08T11:37:16.263Z,15.68
2022-10-08T11:39:49.891Z,22.38
2022-10-08T11:42:48.167Z,16.00
2022-10-08T11:45:25.811Z,16.63
2022-10-08T11:47:58.412Z,16.30
2022-10-08T11:50:36.172Z,16.15
2022-10-08T11:53:15.498Z,14.43
2022-10-08T11:55:53.439Z,16.63
2022-10-08T11:58:30.654Z,16.77
2022-10-08T12:01:09.961Z,14.52
2022-10-08T12:03:40.810Z,14.90
2022-10-08T12:06:28.738Z,15.77
2022-10-08T12:08:57.342Z,13.82
2022-10-08T12:11:37.462Z,17.02
2022-10-08T12:14:17.120Z,13.32
2022-10-08T12:16:47.422Z,14.35
2022-10-08T12:19:35.813Z,14.50
2022-10-08T12:22:15.321Z,15.02
2022-10-08T12:24:50.239Z,19.55
2022-10-08T12:27:18.033Z,15.35
2022-10-08T12:30:13.903Z,16.85
2022-10-08T12:35:41.623Z,14.40
2022-10-08T12:38:31.194Z,14.23
2022-10-08T12:41:23.398Z,12.90
2022-10-08T12:44:19.649Z,12.70
2022-10-08T12:47:16.517Z,13.35
2022-10-08T12:49:52.282Z,11.80
2022-10-08T12:52:21.100Z,13.93
2022-10-08T12:55:09.874Z,11.77
2022-10-08T12:57:40.612Z,13.20
2022-10-08T13:00:20.930Z,13.35
2022-10-08T13:03:06.157Z,17.65
2022-10-08T13:05:37.607Z,11.57
2022-10-08T13:08:19.100Z,10.60
2022-10-08T13:10:47.077Z,12.18
2022-10-08T13:13:38.228Z,11.45
2022-10-08T13:16:08.111Z,12.10
2022-10-08T13:18:37.122Z,11.50
2022-10-08T13:21:10.319Z,15.25
2022-10-08T13:23:40.390Z,12.85
2022-10-08T13:26:45.015Z,13.52
2022-10-08T13:29:18.395Z,13.52
2022-10-08T13:32:11.974Z,13.70
2022-10-08T13:35:00.758Z,13.90
2022-10-08T13:37:45.324Z,11.55
2022-10-08T13:40:13.202Z,13.07
2022-10-08T13:42:44.701Z,12.95
2022-10-08T13:45:17.289Z,13.07
2022-10-08T13:47:48.399Z,12.55
2022-10-08T13:50:21.374Z,12.63
2022-10-08T13:52:54.782Z,12.90
2022-10-08T13:55:31.436Z,16.45
2022-10-08T13:58:02.272Z,12.38
2022-10-08T14:00:33.572Z,13.05
2022-10-08T14:03:01.782Z,9.85
2022-10-08T14:05:31.810Z,14.45
2022-10-08T14:08:05.654Z,13.27
2022-10-08T14:10:33.428Z,12.90
2022-10-08T14:13:00.923Z,10.45
2022-10-08T14:15:28.484Z,10.00
2022-10-08T14:17:56.014Z,12.35
2022-10-08T14:20:23.671Z,11.00
2022-10-08T14:22:51.355Z,11.57
2022-10-08T14:25:31.221Z,8.95
2022-10-08T14:28:00.967Z,12.70
2022-10-08T14:30:28.762Z,9.65
2022-10-08T14:32:56.526Z,10.00
2022-10-08T14:35:24.135Z,9.95
2022-10-08T14:37:51.690Z,10.95
2022-10-08T14:40:22.521Z,11.05
2022-10-08T14:42:50.712Z,10.40
2022-10-08T14:45:18.602Z,12.55
2022-10-08T14:47:46.359Z,12.75
2022-10-08T14:50:14.091Z,11.10
2022-10-08T14:52:44.465Z,10.73
2022-10-08T14:55:14.235Z,10.25
2022-10-08T14:57:41.748Z,11.55
2022-10-08T15:00:13.930Z,9.50
2022-10-08T15:02:42.903Z,10.57
2022-10-08T15:05:10.375Z,12.82
2022-10-08T15:07:37.901Z,11.30
2022-10-08T15:10:05.721Z,12.23
2022-10-08T15:12:33.145Z,12.10
2022-10-08T15:15:00.563Z,13.35
2022-10-08T15:17:27.960Z,15.80
2022-10-08T15:19:56.489Z,10.68
2022-10-08T15:22:30.876Z,9.70
2022-10-08T15:24:58.458Z,9.73
2022-10-08T15:27:31.767Z,11.05
2022-10-08T15:29:59.120Z,10.35
2022-10-08T15:32:30.376Z,14.90
2022-10-08T15:34:58.292Z,11.57
2022-10-08T15:37:25.694Z,9.80
2022-10-08T15:39:53.026Z,13.48
2022-10-08T15:42:20.347Z,11.88
2022-10-08T15:44:47.886Z,9.73
2022-10-08T15:47:16.528Z,11.05
2022-10-08T15:49:45.903Z,12.65
2022-10-08T15:52:19.550Z,12.68
2022-10-08T15:54:47.533Z,14.52
2022-10-08T15:57:19.747Z,12.73
2022-10-08T15:59:47.207Z,11.77
2022-10-08T16:02:17.354Z,10.90
2022-10-08T16:04:47.272Z,12.30
2022-10-08T16:07:15.121Z,11.40
2022-10-08T16:09:42.625Z,9.98
2022-10-08T16:12:10.314Z,10.27
2022-10-08T16:14:37.773Z,13.90
2022-10-08T16:17:05.357Z,10.10
2022-10-08T16:19:32.898Z,11.77
2022-10-08T16:22:01.387Z,14.75
2022-10-08T16:24:29.022Z,11.48
2022-10-08T16:26:56.505Z,10.00
2022-10-08T16:29:24.090Z,13.18
2022-10-08T16:31:51.630Z,11.43
2022-10-08T16:34:22.703Z,10.77
2022-10-08T16:36:51.407Z,11.75
2022-10-08T16:39:21.376Z,10.88
2022-10-08T16:41:51.850Z,12.93
2022-10-08T16:44:20.985Z,13.27
2022-10-08T16:46:51.472Z,9.77
2022-10-08T16:49:24.578Z,11.23
2022-10-08T16:52:01.555Z,11.93
2022-10-08T16:54:29.423Z,13.88
2022-10-08T16:56:57.826Z,14.15
2022-10-08T16:59:27.347Z,12.70
2022-10-08T17:01:56.936Z,15.80
2022-10-08T17:04:26.155Z,17.42
2022-10-08T17:06:56.599Z,16.00
2022-10-08T17:09:24.233Z,16.95
2022-10-08T17:11:52.283Z,19.23
2022-10-08T17:14:19.810Z,18.52
2022-10-08T17:16:49.598Z,16.20
2022-10-08T17:19:17.531Z,22.35
2022-10-08T17:21:45.573Z,16.90
2022-10-08T17:24:13.388Z,16.35
2022-10-08T17:26:42.015Z,19.98
2022-10-08T17:29:11.207Z,20.65
2022-10-08T17:31:39.623Z,20.42
2022-10-08T17:34:07.769Z,15.80
2022-10-08T17:36:37.938Z,18.00
2022-10-08T17:39:08.561Z,17.25
2022-10-08T17:41:38.109Z,21.35
2022-10-08T17:44:15.576Z,29.95
2022-10-08T17:46:46.250Z,23.95
2022-10-08T17:49:17.475Z,23.83
2022-10-08T17:52:03.637Z,29.42
2022-10-08T17:54:31.214Z,28.40
2022-10-08T17:57:00.014Z,26.08
2022-10-08T17:59:28.647Z,23.77
2022-10-08T18:01:56.566Z,31.58
2022-10-08T18:04:24.146Z,29.75
2022-10-08T18:06:51.644Z,30.40
2022-10-08T18:09:20.954Z,30.27
2022-10-08T18:11:52.120Z,26.05
2022-10-08T18:14:22.527Z,23.70
2022-10-08T18:16:51.551Z,21.58
2022-10-08T18:19:19.349Z,24.10
2022-10-08T18:21:47.173Z,17.25
2022-10-08T18:24:18.539Z,22.27
2022-10-08T18:26:46.848Z,18.90
2022-10-08T18:29:16.314Z,17.23
2022-10-08T18:31:44.777Z,20.70
2022-10-08T18:34:15.407Z,18.00
2022-10-08T18:36:43.545Z,15.52
2022-10-08T18:39:13.557Z,16.15
2022-10-08T18:44:27.223Z,18.45
